createdAt,value
2017-05-15T00:00:06.875Z,12.99
2017-05-15T00:01:08.110Z,12.87
2017-05-15T00:02:09.404Z,12.93
2017-05-15T00:03:10.631Z,12.87
2017-05-15T00:04:11.948Z,12.87
2017-05-15T00:05:13.453Z,12.85
2017-05-15T00:06:14.750Z,12.84
2017-05-15T00:07:16.001Z,12.85
2017-05-15T00:08:17.410Z,12.77
2017-05-15T00:09:18.651Z,12.75
2017-05-15T00:10:19.978Z,12.74
2017-05-15T00:11:21.299Z,12.71
2017-05-15T00:12:22.672Z,12.69
2017-05-15T00:13:23.816Z,12.69
2017-05-15T00:14:25.070Z,12.64
2017-05-15T00:15:26.365Z,12.71
2017-05-15T00:16:27.624Z,12.71
2017-05-15T00:17:28.984Z,12.6
2017-05-15T00:18:30.234Z,12.7
2017-05-15T00:19:31.485Z,12.71
2017-05-15T00:20:32.732Z,12.57
2017-05-15T00:21:34.065Z,12.56
2017-05-15T00:22:35.330Z,12.67
2017-05-15T00:23:36.593Z,12.54
2017-05-15T00:24:37.925Z,12.48
2017-05-15T00:25:39.077Z,12.51
2017-05-15T00:26:40.355Z,12.45
2017-05-15T00:27:41.675Z,12.39
2017-05-15T00:28:42.988Z,12.44
2017-05-15T00:29:44.242Z,12.31
2017-05-15T00:30:45.513Z,12.29
2017-05-15T00:31:46.770Z,12.27
2017-05-15T00:32:47.980Z,12.27
2017-05-15T00:33:49.241Z,12.26
2017-05-15T00:34:50.487Z,12.27
2017-05-15T00:35:51.746Z,12.26
2017-05-15T00:36:53.028Z,12.31
2017-05-15T00:37:54.296Z,12.31
2017-05-15T00:38:55.694Z,12.23
2017-05-15T00:39:56.933Z,12.31
2017-05-15T00:40:58.187Z,12.29
2017-05-15T00:41:59.474Z,12.31
2017-05-15T00:43:00.771Z,12.33
2017-05-15T00:44:02.018Z,12.27
2017-05-15T00:45:03.330Z,12.31
2017-05-15T00:46:04.586Z,12.3
2017-05-15T00:47:05.845Z,12.27
2017-05-15T00:48:07.116Z,12.11
2017-05-15T00:49:08.400Z,12.19
2017-05-15T00:50:09.635Z,12.2
2017-05-15T00:51:10.879Z,12.23
2017-05-15T00:52:12.172Z,12.15
2017-05-15T00:53:13.449Z,12.15
2017-05-15T00:54:14.705Z,12.11
2017-05-15T00:55:15.958Z,12.15
2017-05-15T00:56:17.233Z,12.05
2017-05-15T00:57:18.493Z,12.15
2017-05-15T00:58:19.732Z,12.06
2017-05-15T00:59:21.026Z,12.11
2017-05-15T01:00:22.274Z,12.05
2017-05-15T01:01:23.549Z,12.04
2017-05-15T01:02:24.799Z,12.08
2017-05-15T01:03:26.049Z,12.05
2017-05-15T01:04:27.321Z,12.06
2017-05-15T01:05:28.598Z,12.11
2017-05-15T01:06:29.827Z,12.06
2017-05-15T01:07:31.100Z,12.04
2017-05-15T01:08:32.340Z,12.02
2017-05-15T01:09:33.761Z,12.05
2017-05-15T01:10:35.014Z,11.99
2017-05-15T01:11:36.288Z,12.09
2017-05-15T01:12:37.635Z,11.99
2017-05-15T01:13:38.913Z,11.97
2017-05-15T01:14:40.152Z,11.97
2017-05-15T01:15:41.488Z,12.01
2017-05-15T01:16:42.747Z,12.04
2017-05-15T01:17:44.013Z,11.99
2017-05-15T01:18:45.298Z,11.99
2017-05-15T01:19:46.640Z,11.89
2017-05-15T01:20:47.875Z,11.82
2017-05-15T01:21:49.130Z,11.74
2017-05-15T01:22:50.412Z,11.7
2017-05-15T01:23:51.686Z,11.71
2017-05-15T01:24:52.967Z,11.72
2017-05-15T01:25:54.253Z,11.64
2017-05-15T01:26:55.542Z,11.61
2017-05-15T01:27:56.793Z,11.62
2017-05-15T01:28:58.169Z,11.54
2017-05-15T01:29:59.545Z,11.56
2017-05-15T01:31:00.799Z,11.49
2017-05-15T01:32:02.041Z,11.49
2017-05-15T01:33:03.320Z,11.5
2017-05-15T01:34:04.565Z,11.41
2017-05-15T01:35:05.879Z,11.29
2017-05-15T01:36:07.166Z,11.32
2017-05-15T01:37:08.474Z,11.35
2017-05-15T01:38:09.702Z,11.24
2017-05-15T01:39:10.979Z,11.24
2017-05-15T01:40:12.337Z,11.25
2017-05-15T01:41:13.618Z,11.27
2017-05-15T01:42:14.972Z,11.21
2017-05-15T01:43:16.252Z,11.24
2017-05-15T01:44:17.519Z,11.13
2017-05-15T01:45:18.806Z,11.16
2017-05-15T01:46:20.053Z,11.17
2017-05-15T01:47:21.303Z,11.21
2017-05-15T01:48:22.580Z,11.11
2017-05-15T01:49:23.842Z,11.07
2017-05-15T01:50:25.102Z,11.02
2017-05-15T01:51:26.330Z,11.01
2017-05-15T01:52:27.602Z,11.01
2017-05-15T01:53:28.945Z,10.92
2017-05-15T01:54:30.226Z,10.92
2017-05-15T01:55:31.558Z,10.95
2017-05-15T01:56:32.773Z,10.8
2017-05-15T01:57:34.059Z,10.88
2017-05-15T01:58:35.467Z,10.76
2017-05-15T01:59:36.772Z,10.73
2017-05-15T02:00:37.961Z,10.62
2017-05-15T02:01:39.210Z,10.7
2017-05-15T02:02:40.450Z,10.66
2017-05-15T02:03:41.696Z,10.6
2017-05-15T02:04:43.011Z,10.55
2017-05-15T02:05:44.283Z,10.52
2017-05-15T02:06:45.582Z,10.55
2017-05-15T02:07:46.834Z,10.42
2017-05-15T02:08:48.083Z,10.55
2017-05-15T02:09:49.311Z,10.52
2017-05-15T02:10:50.652Z,10.55
2017-05-15T02:11:51.989Z,10.47
2017-05-15T02:12:53.258Z,10.4
2017-05-15T02:13:54.520Z,10.51
2017-05-15T02:14:55.818Z,10.44
2017-05-15T02:15:57.117Z,10.43
2017-05-15T02:16:58.399Z,10.4
2017-05-15T02:17:59.693Z,10.4
2017-05-15T02:19:00.953Z,10.43
2017-05-15T02:20:02.207Z,10.39
2017-05-15T02:21:03.499Z,10.42
2017-05-15T02:22:04.747Z,10.39
2017-05-15T02:23:06.036Z,10.42
2017-05-15T02:24:07.364Z,10.42
2017-05-15T02:25:08.619Z,10.42
2017-05-15T02:26:09.837Z,10.32
2017-05-15T02:27:11.120Z,10.26
2017-05-15T02:28:12.405Z,10.33
2017-05-15T02:29:13.795Z,10.33
2017-05-15T02:30:15.049Z,10.28
2017-05-15T02:31:16.296Z,10.24
2017-05-15T02:32:17.711Z,10.19
2017-05-15T02:33:19.036Z,10.15
2017-05-15T02:34:20.332Z,10.22
2017-05-15T02:35:21.602Z,10.17
2017-05-15T02:36:22.839Z,10.09
2017-05-15T02:37:24.115Z,10.18
2017-05-15T02:38:25.398Z,10.19
2017-05-15T02:39:26.669Z,10.19
2017-05-15T02:40:27.954Z,10.24
2017-05-15T02:41:29.237Z,10.25
2017-05-15T02:42:30.474Z,10.26
2017-05-15T02:43:31.700Z,10.26
2017-05-15T02:44:32.953Z,10.33
2017-05-15T02:45:34.222Z,10.24
2017-05-15T02:46:35.490Z,10.19
2017-05-15T02:47:36.723Z,10.12
2017-05-15T02:48:38.000Z,10.1
2017-05-15T02:49:39.286Z,10.07
2017-05-15T02:50:40.516Z,10.06
2017-05-15T02:51:41.835Z,9.97
2017-05-15T02:52:43.117Z,10.04
2017-05-15T02:53:44.359Z,9.99
2017-05-15T02:54:45.637Z,10.07
2017-05-15T02:55:46.951Z,10.04
2017-05-15T02:56:48.198Z,10.1
2017-05-15T02:57:49.448Z,10
2017-05-15T02:58:50.712Z,10.1
2017-05-15T02:59:51.989Z,9.97
2017-05-15T03:00:53.249Z,10.09
2017-05-15T03:01:54.542Z,10.04
2017-05-15T03:02:55.908Z,10.09
2017-05-15T03:03:57.241Z,10.03
2017-05-15T03:04:58.519Z,10.07
2017-05-15T03:05:59.760Z,10.09
2017-05-15T03:07:00.987Z,10
2017-05-15T03:08:02.221Z,10.01
2017-05-15T03:09:03.517Z,9.94
2017-05-15T03:10:04.746Z,9.97
2017-05-15T03:11:06.010Z,10.03
2017-05-15T03:12:07.338Z,10.01
2017-05-15T03:13:08.624Z,10.06
2017-05-15T03:14:09.870Z,10.03
2017-05-15T03:15:11.130Z,9.97
2017-05-15T03:16:12.345Z,10.01
2017-05-15T03:17:13.638Z,10.04
2017-05-15T03:18:14.904Z,9.99
2017-05-15T03:19:16.151Z,9.99
2017-05-15T03:20:17.388Z,9.79
2017-05-15T03:21:18.671Z,9.94
2017-05-15T03:22:19.904Z,9.86
2017-05-15T03:23:21.171Z,9.89
2017-05-15T03:24:22.470Z,9.88
2017-05-15T03:25:23.689Z,9.96
2017-05-15T03:26:24.989Z,9.86
2017-05-15T03:27:26.309Z,9.93
2017-05-15T03:28:27.518Z,9.82
2017-05-15T03:29:28.773Z,9.81
2017-05-15T03:30:30.038Z,9.79
2017-05-15T03:31:31.401Z,9.88
2017-05-15T03:32:32.656Z,9.85
2017-05-15T03:33:33.927Z,9.86
2017-05-15T03:34:35.184Z,9.82
2017-05-15T03:35:36.625Z,9.85
2017-05-15T03:36:37.893Z,9.91
2017-05-15T03:37:39.157Z,9.73
2017-05-15T03:38:40.431Z,9.68
2017-05-15T03:39:41.728Z,9.83
2017-05-15T03:40:43.182Z,9.73
2017-05-15T03:41:44.442Z,9.7
2017-05-15T03:42:45.757Z,9.82
2017-05-15T03:43:46.999Z,9.82
2017-05-15T03:44:48.268Z,9.88
2017-05-15T03:45:49.548Z,9.85
2017-05-15T03:46:50.855Z,9.81
2017-05-15T03:47:52.096Z,9.91
2017-05-15T03:48:53.356Z,9.91
2017-05-15T03:49:54.638Z,9.78
2017-05-15T03:50:55.859Z,9.83
2017-05-15T03:51:57.140Z,9.96
2017-05-15T03:52:58.418Z,9.96
2017-05-15T03:53:59.944Z,9.96
2017-05-15T03:55:01.120Z,10.01
2017-05-15T03:56:02.390Z,9.91
2017-05-15T03:57:03.653Z,9.88
2017-05-15T03:58:04.915Z,9.83
2017-05-15T03:59:06.142Z,9.89
2017-05-15T04:00:07.428Z,9.82
2017-05-15T04:01:08.674Z,9.88
2017-05-15T04:02:09.904Z,9.93
2017-05-15T04:03:11.163Z,9.89
2017-05-15T04:04:12.429Z,9.97
2017-05-15T04:05:13.745Z,10
2017-05-15T04:06:15.150Z,9.93
2017-05-15T04:07:16.379Z,10.04
2017-05-15T04:08:17.668Z,10.06
2017-05-15T04:09:18.939Z,10.14
2017-05-15T04:10:20.279Z,10.17
2017-05-15T04:11:21.543Z,10.15
2017-05-15T04:12:22.861Z,10.3
2017-05-15T04:13:24.139Z,10.32
2017-05-15T04:14:25.382Z,10.42
2017-05-15T04:15:26.634Z,10.37
2017-05-15T04:16:27.912Z,10.44
2017-05-15T04:17:29.199Z,10.46
2017-05-15T04:18:30.455Z,10.4
2017-05-15T04:19:31.785Z,10.52
2017-05-15T04:20:33.025Z,10.52
2017-05-15T04:21:34.290Z,10.59
2017-05-15T04:22:35.645Z,10.62
2017-05-15T04:23:36.799Z,10.63
2017-05-15T04:24:38.061Z,10.68
2017-05-15T04:25:39.341Z,10.66
2017-05-15T04:26:40.607Z,10.73
2017-05-15T04:27:41.878Z,10.74
2017-05-15T04:28:43.218Z,10.81
2017-05-15T04:29:44.521Z,10.88
2017-05-15T04:30:45.807Z,10.92
2017-05-15T04:31:47.076Z,11.02
2017-05-15T04:32:48.326Z,11.02
2017-05-15T04:33:49.659Z,11.14
2017-05-15T04:34:51.006Z,11.1
2017-05-15T04:35:52.273Z,11.14
2017-05-15T04:36:53.529Z,11.2
2017-05-15T04:37:54.811Z,11.25
2017-05-15T04:38:56.091Z,11.25
2017-05-15T04:39:57.404Z,11.21
2017-05-15T04:40:58.655Z,11.2
2017-05-15T04:41:59.897Z,11.31
2017-05-15T04:43:01.167Z,11.43
2017-05-15T04:44:02.426Z,11.35
2017-05-15T04:45:03.729Z,11.43
2017-05-15T04:46:05.289Z,11.46
2017-05-15T04:47:06.521Z,11.47
2017-05-15T04:48:07.912Z,11.59
2017-05-15T04:49:09.131Z,11.54
2017-05-15T04:50:10.366Z,11.56
2017-05-15T04:51:11.612Z,11.61
2017-05-15T04:52:12.900Z,11.65
2017-05-15T04:53:14.228Z,11.68
2017-05-15T04:54:15.497Z,11.71
2017-05-15T04:55:16.737Z,11.68
2017-05-15T04:56:17.996Z,11.85
2017-05-15T04:57:19.265Z,11.93
2017-05-15T04:58:20.579Z,12.01
2017-05-15T04:59:21.838Z,12.15
2017-05-15T05:00:23.110Z,12.09
2017-05-15T05:01:24.330Z,12.29
2017-05-15T05:02:25.601Z,12.42
2017-05-15T05:03:26.897Z,12.39
2017-05-15T05:04:28.145Z,12.48
2017-05-15T05:05:29.385Z,12.74
2017-05-15T05:06:30.731Z,12.93
2017-05-15T05:07:32.002Z,13.21
2017-05-15T05:08:33.249Z,13.63
2017-05-15T05:09:34.546Z,13.98
2017-05-15T05:10:35.780Z,14.25
2017-05-15T05:11:37.148Z,14.78
2017-05-15T05:12:38.386Z,15.13
2017-05-15T05:13:39.640Z,15.68
2017-05-15T05:14:40.874Z,15.96
2017-05-15T05:15:42.190Z,16.2
2017-05-15T05:16:43.567Z,16.4
2017-05-15T05:17:44.955Z,16.49
2017-05-15T05:18:46.116Z,16.58
2017-05-15T05:19:47.386Z,16.81
2017-05-15T05:20:48.685Z,17.03
2017-05-15T05:21:50.044Z,17.26
2017-05-15T05:22:51.285Z,17.35
2017-05-15T05:23:52.515Z,17.71
2017-05-15T05:24:53.776Z,18.06
2017-05-15T05:25:55.030Z,18.57
2017-05-15T05:26:56.279Z,18.8
2017-05-15T05:27:57.664Z,19.01
2017-05-15T05:28:58.951Z,19.28
2017-05-15T05:30:00.158Z,19.43
2017-05-15T05:31:01.397Z,19.58
2017-05-15T05:32:02.645Z,19.91
2017-05-15T05:33:03.937Z,20.15
2017-05-15T05:34:05.290Z,20.64
2017-05-15T05:35:06.588Z,20.96
2017-05-15T05:36:07.852Z,21.23
2017-05-15T05:37:09.149Z,21.48
2017-05-15T05:38:10.407Z,21.44
2017-05-15T05:39:11.679Z,21.48
2017-05-15T05:40:12.918Z,21.44
2017-05-15T05:41:14.264Z,21.56
2017-05-15T05:42:15.530Z,21.6
2017-05-15T05:43:16.781Z,21.72
2017-05-15T05:44:18.284Z,21.74
2017-05-15T05:45:19.637Z,21.71
2017-05-15T05:46:20.990Z,21.74
2017-05-15T05:47:22.204Z,21.98
2017-05-15T05:48:23.482Z,22.28
2017-05-15T05:49:24.744Z,22.83
2017-05-15T05:50:25.999Z,23.45
2017-05-15T05:51:27.437Z,23.68
2017-05-15T05:52:28.659Z,24.17
2017-05-15T05:53:29.876Z,24.54
2017-05-15T05:54:31.147Z,25.12
2017-05-15T05:55:32.398Z,25.62
2017-05-15T05:56:33.823Z,26.12
2017-05-15T05:57:35.054Z,26.72
2017-05-15T05:58:36.463Z,27.01
2017-05-15T05:59:37.758Z,27.21
2017-05-15T06:00:39.019Z,27.46
2017-05-15T06:01:40.270Z,27.29
2017-05-15T06:02:41.589Z,27.43
2017-05-15T06:03:42.984Z,27.79
2017-05-15T06:04:44.147Z,28.16
2017-05-15T06:05:45.433Z,28.21
2017-05-15T06:06:46.701Z,28.33
2017-05-15T06:07:48.069Z,28.48
2017-05-15T06:08:49.497Z,28.72
2017-05-15T06:09:50.887Z,29.13
2017-05-15T06:10:52.126Z,29.55
2017-05-15T06:11:53.449Z,29.6
2017-05-15T06:12:54.749Z,29.93
2017-05-15T06:13:56.139Z,30.46
2017-05-15T06:14:57.377Z,30.33
2017-05-15T06:15:58.668Z,30.31
2017-05-15T06:16:59.927Z,30.75
2017-05-15T06:18:01.237Z,30.94
2017-05-15T06:19:02.515Z,31.11
2017-05-15T06:20:03.817Z,31.62
2017-05-15T06:21:05.109Z,31.79
2017-05-15T06:22:06.334Z,32
2017-05-15T06:23:07.760Z,32.29
2017-05-15T06:24:09.012Z,32.48
2017-05-15T06:25:10.394Z,32.25
2017-05-15T06:26:11.707Z,32.79
2017-05-15T06:27:12.998Z,33.15
2017-05-15T06:28:14.255Z,33.22
2017-05-15T06:29:15.518Z,33.76
2017-05-15T06:30:16.784Z,33.79
2017-05-15T06:31:18.063Z,33.92
2017-05-15T06:32:19.337Z,34.02
2017-05-15T06:33:20.600Z,33.94
2017-05-15T06:34:21.874Z,33.78
2017-05-15T06:35:23.202Z,33.79
2017-05-15T06:36:24.472Z,33.95
2017-05-15T06:37:25.760Z,34
2017-05-15T06:38:27.039Z,33.95
2017-05-15T06:39:28.309Z,34.23
2017-05-15T06:40:29.608Z,34.58
2017-05-15T06:41:30.880Z,34.57
2017-05-15T06:42:32.198Z,34.58
2017-05-15T06:43:33.561Z,34.99
2017-05-15T06:44:34.841Z,35.23
2017-05-15T06:45:36.092Z,35.45
2017-05-15T06:46:37.391Z,35.39
2017-05-15T06:47:38.693Z,35.81
2017-05-15T06:48:39.994Z,35.81
2017-05-15T06:49:41.307Z,36.07
2017-05-15T06:50:42.592Z,36.3
2017-05-15T06:51:43.936Z,36.43
2017-05-15T06:52:45.395Z,36.24
2017-05-15T06:53:46.712Z,36.19
2017-05-15T06:54:47.999Z,36.42
2017-05-15T06:55:49.252Z,36.12
2017-05-15T06:56:50.519Z,36.06
2017-05-15T06:57:51.791Z,35.72
2017-05-15T06:58:53.172Z,35.15
2017-05-15T06:59:54.449Z,35.13
2017-05-15T07:00:55.707Z,35.39
2017-05-15T07:01:56.968Z,35.47
2017-05-15T07:02:58.243Z,35.33
2017-05-15T07:03:59.670Z,35.36
2017-05-15T07:05:00.923Z,35.17
2017-05-15T07:06:02.200Z,34.79
2017-05-15T07:07:03.485Z,35.17
2017-05-15T07:08:04.740Z,35.18
2017-05-15T07:09:06.015Z,35.5
2017-05-15T07:10:07.358Z,35.62
2017-05-15T07:11:08.593Z,35.81
2017-05-15T07:12:09.894Z,35.85
2017-05-15T07:13:11.183Z,35.89
2017-05-15T07:14:12.424Z,35.72
2017-05-15T07:15:13.693Z,35.7
2017-05-15T07:16:14.947Z,35.77
2017-05-15T07:17:16.235Z,35.58
2017-05-15T07:18:17.587Z,35.85
2017-05-15T07:19:18.857Z,35.92
2017-05-15T07:20:20.120Z,35.76
2017-05-15T07:21:21.425Z,36.23
2017-05-15T07:22:22.662Z,36.29
2017-05-15T07:23:23.983Z,35.97
2017-05-15T07:24:25.250Z,36.33
2017-05-15T07:25:26.537Z,36.76
2017-05-15T07:26:27.921Z,36.99
2017-05-15T07:27:29.296Z,36.97
2017-05-15T07:28:30.550Z,37.1
2017-05-15T07:29:31.822Z,37.04
2017-05-15T07:30:33.108Z,36.92
2017-05-15T07:31:34.376Z,36.33
2017-05-15T07:32:35.655Z,36.3
2017-05-15T07:33:36.944Z,36.65
2017-05-15T07:34:38.276Z,36.31
2017-05-15T07:35:39.692Z,36.33
2017-05-15T07:36:40.943Z,36.52
2017-05-15T07:37:42.266Z,37.02
2017-05-15T07:38:43.551Z,37.24
2017-05-15T07:39:44.806Z,37.39
2017-05-15T07:40:46.137Z,37.29
2017-05-15T07:41:47.399Z,37.32
2017-05-15T07:42:48.688Z,37.68
2017-05-15T07:43:49.949Z,37.71
2017-05-15T07:44:51.235Z,37.2
2017-05-15T07:45:52.637Z,36.87
2017-05-15T07:46:53.892Z,36.35
2017-05-15T07:47:55.175Z,36.76
2017-05-15T07:48:56.453Z,37.33
2017-05-15T07:49:57.698Z,37.51
2017-05-15T07:50:58.971Z,37.59
2017-05-15T07:52:00.284Z,37.88
2017-05-15T07:53:01.709Z,37.95
2017-05-15T07:54:03.014Z,37.77
2017-05-15T07:55:04.296Z,38.11
2017-05-15T07:56:05.549Z,38.46
2017-05-15T07:57:06.898Z,38.49
2017-05-15T07:58:08.337Z,38.44
2017-05-15T07:59:09.604Z,38.52
2017-05-15T08:00:10.917Z,38.64
2017-05-15T08:01:12.241Z,38.83
2017-05-15T08:02:13.613Z,39.17
2017-05-15T08:03:15.050Z,39.49
2017-05-15T08:04:16.302Z,39.18
2017-05-15T08:05:17.581Z,39.42
2017-05-15T08:06:18.864Z,39.62
2017-05-15T08:07:20.135Z,39.64
2017-05-15T08:08:21.461Z,39.77
2017-05-15T08:09:22.743Z,39.49
2017-05-15T08:10:24.015Z,39.44
2017-05-15T08:11:25.285Z,39.17
2017-05-15T08:12:26.623Z,39.02
2017-05-15T08:13:27.988Z,39.17
2017-05-15T08:14:29.263Z,39.13
2017-05-15T08:15:30.554Z,39.1
2017-05-15T08:16:31.899Z,39.25
2017-05-15T08:17:33.324Z,39.55
2017-05-15T08:18:34.563Z,39.73
2017-05-15T08:19:35.890Z,39.65
2017-05-15T08:20:37.144Z,39.56
2017-05-15T08:21:38.418Z,39.59
2017-05-15T08:22:39.715Z,39.42
2017-05-15T08:23:41.125Z,38.8
2017-05-15T08:24:42.404Z,38.92
2017-05-15T08:25:43.652Z,38.58
2017-05-15T08:26:44.991Z,38.58
2017-05-15T08:27:46.270Z,38.73
2017-05-15T08:28:47.534Z,39.06
2017-05-15T08:29:48.835Z,39.35
2017-05-15T08:30:50.165Z,39.56
2017-05-15T08:31:51.422Z,39.36
2017-05-15T08:32:52.687Z,38.27
2017-05-15T08:33:53.988Z,38.51
2017-05-15T08:34:55.331Z,38.52
2017-05-15T08:35:56.597Z,38.73
2017-05-15T08:36:57.916Z,38.85
2017-05-15T08:37:59.222Z,38.6
2017-05-15T08:39:00.481Z,38.57
2017-05-15T08:40:01.755Z,38.61
2017-05-15T08:41:03.027Z,38.98
2017-05-15T08:42:04.455Z,38.73
2017-05-15T08:43:05.715Z,39.09
2017-05-15T08:44:06.964Z,38.89
2017-05-15T08:45:08.292Z,39.3
2017-05-15T08:46:09.691Z,39.32
2017-05-15T08:47:10.978Z,39.2
2017-05-15T08:48:12.243Z,38.63
2017-05-15T08:49:13.514Z,38.1
2017-05-15T08:50:14.777Z,38.01
2017-05-15T08:51:16.054Z,38.04
2017-05-15T08:52:17.315Z,38.14
2017-05-15T08:53:18.586Z,38.53
2017-05-15T08:54:19.879Z,38.68
2017-05-15T08:55:21.126Z,38.78
2017-05-15T08:56:22.383Z,39.15
2017-05-15T08:57:23.638Z,39.13
2017-05-15T08:58:24.962Z,39.51
2017-05-15T08:59:26.242Z,39.67
2017-05-15T09:00:27.510Z,39.51
2017-05-15T09:01:28.764Z,39.55
2017-05-15T09:02:30.089Z,39.61
2017-05-15T09:03:31.365Z,39.8
2017-05-15T09:04:32.611Z,40.12
2017-05-15T09:05:33.940Z,40.33
2017-05-15T09:06:35.193Z,40.23
2017-05-15T09:07:36.495Z,40.15
2017-05-15T09:08:37.756Z,39.95
2017-05-15T09:09:39.010Z,39.69
2017-05-15T09:10:40.304Z,39.21
2017-05-15T09:11:41.562Z,39.13
2017-05-15T09:12:42.845Z,39.59
2017-05-15T09:13:44.110Z,39.67
2017-05-15T09:14:45.373Z,39.67
2017-05-15T09:15:46.656Z,39.74
2017-05-15T09:16:47.991Z,39.46
2017-05-15T09:17:49.272Z,39.37
2017-05-15T09:18:50.512Z,39.27
2017-05-15T09:19:51.760Z,39.22
2017-05-15T09:20:53.042Z,39.18
2017-05-15T09:21:54.365Z,39.17
2017-05-15T09:22:55.628Z,39.27
2017-05-15T09:23:56.895Z,39.43
2017-05-15T09:24:58.193Z,39.22
2017-05-15T09:25:59.472Z,39.71
2017-05-15T09:27:00.791Z,39.88
2017-05-15T09:28:02.095Z,39.98
2017-05-15T09:29:03.395Z,40.14
2017-05-15T09:30:04.670Z,40
2017-05-15T09:31:05.962Z,40.3
2017-05-15T09:32:07.280Z,40.72
2017-05-15T09:33:08.522Z,41.02
2017-05-15T09:34:09.807Z,41.54
2017-05-15T09:35:11.105Z,41.58
2017-05-15T09:36:12.357Z,41.98
2017-05-15T09:37:13.658Z,42.51
2017-05-15T09:38:14.911Z,43.1
2017-05-15T09:39:16.180Z,43.58
2017-05-15T09:40:17.476Z,43.8
2017-05-15T09:41:18.754Z,43.61
2017-05-15T09:42:19.986Z,41.88
2017-05-15T09:43:21.267Z,41.55
2017-05-15T09:44:22.539Z,41.12
2017-05-15T09:45:23.846Z,40.57
2017-05-15T09:46:25.172Z,40.52
2017-05-15T09:47:26.444Z,40.86
2017-05-15T09:48:27.760Z,40.49
2017-05-15T09:49:29.075Z,40.47
2017-05-15T09:50:30.314Z,40.65
2017-05-15T09:51:31.644Z,40.94
2017-05-15T09:52:32.929Z,41.28
2017-05-15T09:53:34.201Z,41.55
2017-05-15T09:54:35.454Z,41.85
2017-05-15T09:55:36.716Z,42.12
2017-05-15T09:56:38.159Z,42.23
2017-05-15T09:57:39.546Z,42.42
2017-05-15T09:58:40.730Z,41.49
2017-05-15T09:59:42.026Z,40.38
2017-05-15T10:00:43.293Z,40.15
2017-05-15T10:01:44.562Z,39.81
2017-05-15T10:02:45.833Z,39.83
2017-05-15T10:03:47.123Z,39.64
2017-05-15T10:04:48.508Z,39.86
2017-05-15T10:05:49.757Z,40.05
2017-05-15T10:06:51.044Z,40.1
2017-05-15T10:07:52.355Z,40.33
2017-05-15T10:08:53.669Z,40.57
2017-05-15T10:09:54.923Z,40.19
2017-05-15T10:10:56.227Z,40.45
2017-05-15T10:11:57.559Z,40.04
2017-05-15T10:12:58.800Z,39.1
2017-05-15T10:14:00.094Z,37.33
2017-05-15T10:15:01.400Z,36.31
2017-05-15T10:16:02.690Z,35.6
2017-05-15T10:17:03.992Z,34.69
2017-05-15T10:18:05.282Z,34.07
2017-05-15T10:19:06.518Z,33.64
2017-05-15T10:20:07.851Z,33.17
2017-05-15T10:21:09.157Z,32.88
2017-05-15T10:22:10.453Z,31.96
2017-05-15T10:23:11.731Z,31.4
2017-05-15T10:24:12.993Z,30.83
2017-05-15T10:25:14.306Z,30.52
2017-05-15T10:26:15.656Z,30.68
2017-05-15T10:27:17.038Z,31.15
2017-05-15T10:28:18.305Z,31.64
2017-05-15T10:29:19.630Z,32.39
2017-05-15T10:30:20.900Z,33.36
2017-05-15T10:31:22.238Z,34.04
2017-05-15T10:32:23.473Z,34.39
2017-05-15T10:33:24.734Z,34.69
2017-05-15T10:34:26.154Z,34.92
2017-05-15T10:35:27.425Z,34.96
2017-05-15T10:36:28.689Z,34.26
2017-05-15T10:37:30.030Z,34.05
2017-05-15T10:38:31.306Z,34.19
2017-05-15T10:39:32.547Z,34.19
2017-05-15T10:40:33.808Z,34.29
2017-05-15T10:41:35.087Z,34.42
2017-05-15T10:42:36.357Z,34.14
2017-05-15T10:43:37.685Z,33.73
2017-05-15T10:44:38.953Z,33.43
2017-05-15T10:45:40.202Z,33.31
2017-05-15T10:46:41.452Z,33.13
2017-05-15T10:47:42.739Z,32.51
2017-05-15T10:48:44.027Z,30.68
2017-05-15T10:49:45.410Z,29.34
2017-05-15T10:50:46.657Z,28.48
2017-05-15T10:51:47.937Z,28.19
2017-05-15T10:52:49.311Z,28.14
2017-05-15T10:53:50.473Z,28.13
2017-05-15T10:54:51.839Z,28.11
2017-05-15T10:55:53.175Z,28.13
2017-05-15T10:56:54.450Z,27.98
2017-05-15T10:57:55.710Z,27.74
2017-05-15T10:58:56.998Z,27.29
2017-05-15T10:59:58.269Z,27.17
2017-05-15T11:00:59.657Z,27.04
2017-05-15T11:02:01.077Z,26.74
2017-05-15T11:03:02.258Z,26.39
2017-05-15T11:04:03.536Z,26.08
2017-05-15T11:05:04.789Z,25.77
2017-05-15T11:06:06.053Z,25.69
2017-05-15T11:07:07.316Z,25.69
2017-05-15T11:08:08.565Z,25.49
2017-05-15T11:09:09.867Z,25.25
2017-05-15T11:10:11.113Z,24.97
2017-05-15T11:11:12.362Z,24.8
2017-05-15T11:12:13.676Z,24.76
2017-05-15T11:13:14.950Z,24.44
2017-05-15T11:14:16.174Z,24.42
2017-05-15T11:15:17.424Z,24.27
2017-05-15T11:16:18.691Z,24.2
2017-05-15T11:17:20.056Z,24.26
2017-05-15T11:18:21.454Z,24.27
2017-05-15T11:19:22.695Z,24.32
2017-05-15T11:20:23.969Z,24.34
2017-05-15T11:21:25.258Z,24.31
2017-05-15T11:22:26.528Z,24.29
2017-05-15T11:23:27.852Z,24.2
2017-05-15T11:24:29.152Z,24.19
2017-05-15T11:25:30.437Z,24.1
2017-05-15T11:26:31.739Z,24.07
2017-05-15T11:27:33.023Z,24.04
2017-05-15T11:28:34.284Z,24
2017-05-15T11:29:35.549Z,23.97
2017-05-15T11:30:36.814Z,23.83
2017-05-15T11:31:38.058Z,23.77
2017-05-15T11:32:39.342Z,23.77
2017-05-15T11:33:40.651Z,23.71
2017-05-15T11:34:41.932Z,23.67
2017-05-15T11:35:43.265Z,23.71
2017-05-15T11:36:44.569Z,23.55
2017-05-15T11:37:45.852Z,23.64
2017-05-15T11:38:47.107Z,23.68
2017-05-15T11:39:48.370Z,23.68
2017-05-15T11:40:49.641Z,23.62
2017-05-15T11:41:51.019Z,23.64
2017-05-15T11:42:52.350Z,23.61
2017-05-15T11:43:53.641Z,23.72
2017-05-15T11:44:54.913Z,23.75
2017-05-15T11:45:56.251Z,23.76
2017-05-15T11:46:57.746Z,23.79
2017-05-15T11:47:59.132Z,23.71
2017-05-15T11:49:00.307Z,23.64
2017-05-15T11:50:01.596Z,23.57
2017-05-15T11:51:02.850Z,23.61
2017-05-15T11:52:04.205Z,23.61
2017-05-15T11:53:05.498Z,23.6
2017-05-15T11:54:06.800Z,23.64
2017-05-15T11:55:08.115Z,23.68
2017-05-15T11:56:09.393Z,23.75
2017-05-15T11:57:10.656Z,23.62
2017-05-15T11:58:11.911Z,23.7
2017-05-15T11:59:13.236Z,23.7
2017-05-15T12:00:14.475Z,23.7
2017-05-15T12:01:15.742Z,23.61
2017-05-15T12:02:17.030Z,23.39
2017-05-15T12:03:18.281Z,23.12
2017-05-15T12:04:19.575Z,23.17
2017-05-15T12:05:20.846Z,23.04
2017-05-15T12:06:22.172Z,23.02
2017-05-15T12:07:23.435Z,23.15
2017-05-15T12:08:24.658Z,23.05
2017-05-15T12:09:26.088Z,23.19
2017-05-15T12:10:27.381Z,23.12
2017-05-15T12:11:28.732Z,23.17
2017-05-15T12:12:29.915Z,23.14
2017-05-15T12:13:31.152Z,23.17
2017-05-15T12:14:32.405Z,23.15
2017-05-15T12:15:33.832Z,23.01
2017-05-15T12:16:35.220Z,23.01
2017-05-15T12:17:36.508Z,22.99
2017-05-15T12:18:37.770Z,22.97
2017-05-15T12:19:39.048Z,23.02
2017-05-15T12:20:40.401Z,22.87
2017-05-15T12:21:41.724Z,22.71
2017-05-15T12:22:43.096Z,22.82
2017-05-15T12:23:44.250Z,22.82
2017-05-15T12:24:45.508Z,22.9
2017-05-15T12:25:46.809Z,23.04
2017-05-15T12:26:48.065Z,22.94
2017-05-15T12:27:49.329Z,23.05
2017-05-15T12:28:50.559Z,23.17
2017-05-15T12:29:51.880Z,23.34
2017-05-15T12:30:53.112Z,23.52
2017-05-15T12:31:54.443Z,23.67
2017-05-15T12:32:55.738Z,23.75
2017-05-15T12:33:56.985Z,23.85
2017-05-15T12:34:58.412Z,24.07
2017-05-15T12:35:59.675Z,24.04
2017-05-15T12:37:00.939Z,24.1
2017-05-15T12:38:02.203Z,24.22
2017-05-15T12:39:03.576Z,24.23
2017-05-15T12:40:04.844Z,24.34
2017-05-15T12:41:06.141Z,24.42
2017-05-15T12:42:07.435Z,24.61
2017-05-15T12:43:08.724Z,24.71
2017-05-15T12:44:09.946Z,24.64
2017-05-15T12:45:11.200Z,24.56
2017-05-15T12:46:12.477Z,24.6
2017-05-15T12:47:13.738Z,24.44
2017-05-15T12:48:14.995Z,24.34
2017-05-15T12:49:16.278Z,24.39
2017-05-15T12:50:17.619Z,24.26
2017-05-15T12:51:19.004Z,24.32
2017-05-15T12:52:20.405Z,24.31
2017-05-15T12:53:21.647Z,24.24
2017-05-15T12:54:22.912Z,24.27
2017-05-15T12:55:24.186Z,24.23
2017-05-15T12:56:25.450Z,24.34
2017-05-15T12:57:26.826Z,24.13
2017-05-15T12:58:28.229Z,24.13
2017-05-15T12:59:29.530Z,23.86
2017-05-15T13:00:30.845Z,23.83
2017-05-15T13:01:32.159Z,23.83
2017-05-15T13:02:33.492Z,23.72
2017-05-15T13:03:34.794Z,23.64
2017-05-15T13:04:36.182Z,23.75
2017-05-15T13:05:37.442Z,23.65
2017-05-15T13:06:38.765Z,23.61
2017-05-15T13:07:40.176Z,23.6
2017-05-15T13:08:41.448Z,23.62
2017-05-15T13:09:42.694Z,23.42
2017-05-15T13:10:43.945Z,23.62
2017-05-15T13:11:45.245Z,23.72
2017-05-15T13:12:46.614Z,23.7